Terminal Aerodrome Forecast
Issued by NWS

Home | Current Version | Previous Version | Text Only | Print | Product List | Glossary On
Versions: 1 2 3 4 5 6 7 8 9 10 11 12 13 14 15 16 17
000
FTUS41 KPHI 180538
TAFPNE
TAF
KPNE 180538Z 1806/1906 VRB02KT P6SM SCT150
     FM181700 19009KT 6SM -SHRA OVC070
     FM190100 19009KT P6SM VCSH OVC050
     FM190300 20011G19KT P6SM VCSH OVC030=

USA.gov is the U.S. government's official web portal to all federal, state and local government web resources and services.